Time;durP1;ratioP1;P1;durP2;ratioP2;P2;SDS_P1;SDS_P2;PMS_P1;PMS_P2;Temp;Humidity;BMP_temperature;BMP_pressure;BME280_temperature;BME280_humidity;BME280_pressure;Samples;Min_cycle;Max_cycle;Signal;HPM_P1;HPM_P2
2021/08/20 00:00:04;;;;;;;1999.90;999.90;;;;;;;20.92;69.83;100957.66;15699639;28;20041;-59
2021/08/20 00:07:44;;;;;;;;;;;;;;;21.00;69.27;100962.16;15719215;28;20124;-57
2021/08/20 00:15:18;;;;;;;1999.90;999.90;;;;;;;20.81;69.73;100962.47;15727437;28;19967;-56
2021/08/20 00:22:50;;;;;;;1999.90;999.90;;;;;;;20.74;70.34;100958.41;15692315;28;20068;-55
2021/08/20 00:30:24;;;;;;;1999.90;999.90;;;;;;;20.84;70.10;100953.16;15716243;28;20049;-56
2021/08/20 00:37:56;;;;;;;1999.90;999.90;;;;;;;20.88;70.19;100951.16;15719650;28;20509;-57
2021/08/20 00:45:30;;;;;;;1999.90;999.90;;;;;;;20.89;70.60;100953.59;15716687;28;20037;-59
2021/08/20 00:53:03;;;;;;;1999.90;999.90;;;;;;;20.89;70.51;100947.13;15682375;28;20052;-58
2021/08/20 01:00:40;;;;;;;1999.90;999.90;;;;;;;21.01;70.44;100961.75;15706693;28;20052;-58
2021/08/20 01:08:12;;;;;;;1999.90;999.90;;;;;;;21.00;70.76;100951.63;15707571;28;20516;-57
2021/08/20 01:15:47;;;;;;;1999.90;999.90;;;;;;;20.72;72.09;100954.31;15683013;28;20508;-57
2021/08/20 01:23:19;;;;;;;1999.90;999.90;;;;;;;20.67;72.58;100961.19;15676078;28;20410;-55
2021/08/20 01:30:59;;;;;;;1999.90;999.90;;;;;;;20.65;73.72;100960.78;15657288;28;20041;-59
2021/08/20 01:38:34;;;;;;;1999.90;999.90;;;;;;;20.56;74.57;100960.31;15725623;28;20060;-56
2021/08/20 01:46:08;;;;;;;1999.90;999.90;;;;;;;20.57;74.86;100966.78;15691824;28;20045;-58
2021/08/20 01:53:41;;;;;;;1999.90;999.90;;;;;;;20.22;76.82;100962.47;15712564;28;20497;-57
2021/08/20 02:01:15;;;;;;;;;;;;;;;20.15;77.43;100959.56;15691114;28;20083;-56
2021/08/20 02:08:47;;;;;;;1999.90;999.90;;;;;;;19.97;77.84;100944.44;15701907;28;20034;-56
2021/08/20 02:16:21;;;;;;;1999.90;999.90;;;;;;;19.96;77.72;100940.81;15704235;28;20040;-55
2021/08/20 02:23:56;;;;;;;1999.90;999.90;;;;;;;19.90;77.79;100965.00;15717099;28;20040;-55
2021/08/20 02:31:32;;;;;;;1999.90;999.90;;;;;;;19.89;78.27;100960.56;15686962;28;20032;-54
2021/08/20 02:39:06;;;;;;;1999.90;999.90;;;;;;;19.91;78.17;100951.69;15700711;28;20192;-57
2021/08/20 02:46:41;;;;;;;1999.90;999.90;;;;;;;20.03;78.19;100957.06;15699434;28;20039;-56
2021/08/20 02:54:13;;;;;;;1999.90;999.90;;;;;;;20.01;78.00;100967.94;15671847;28;20075;-56
2021/08/20 03:01:49;;;;;;;;;;;;;;;20.15;78.36;100959.56;15697393;28;20033;-57
2021/08/20 03:09:23;;;;;;;1999.90;999.90;;;;;;;20.13;78.04;100957.16;15684975;28;19928;-58
2021/08/20 03:16:57;;;;;;;1999.90;999.90;;;;;;;20.17;77.81;100943.00;15693836;28;20044;-55
2021/08/20 03:24:29;;;;;;;1999.90;999.90;;;;;;;20.14;77.87;100958.78;15672810;28;20051;-57
2021/08/20 03:32:04;;;;;;;1999.90;999.90;;;;;;;20.18;77.90;100955.94;15752297;22;20152;-51
2021/08/20 03:39:37;;;;;;;1999.90;999.90;;;;;;;20.13;78.36;100956.34;15752457;28;20675;-55
2021/08/20 03:47:11;;;;;;;1999.90;999.90;;;;;;;20.21;77.98;100954.34;15805129;28;20043;-56
2021/08/20 03:54:44;;;;;;;1999.90;999.90;;;;;;;20.21;77.84;100966.50;15815448;28;20036;-54
2021/08/20 04:02:23;;;;;;;1999.90;999.90;;;;;;;20.16;78.33;100964.84;15802929;28;20039;-52
2021/08/20 04:09:55;;;;;;;1999.90;999.90;;;;;;;20.18;78.12;100965.25;15815417;28;20066;-54
2021/08/20 04:17:47;;;;;;;1999.90;999.90;;;;;;;20.05;78.71;100969.63;15800584;28;20086;-52
2021/08/20 04:25:20;;;;;;;1999.90;999.90;;;;;;;19.73;79.92;100969.31;15788326;28;20075;-55
2021/08/20 04:33:16;;;;;;;1999.90;999.90;;;;;;;19.73;80.31;100974.97;15762054;28;20102;-60
2021/08/20 04:41:08;;;;;;;1999.90;999.90;;;;;;;19.93;79.40;100977.59;15828576;28;20067;-59
2021/08/20 04:48:53;;;;;;;1999.90;999.90;;;;;;;20.16;79.09;100981.84;15751888;28;20492;-54
2021/08/20 04:57:01;;;;;;;1999.90;999.90;;;;;;;20.13;78.67;100973.34;15821514;28;20040;-55
2021/08/20 05:04:37;;;;;;;1999.90;999.90;;;;;;;20.10;79.51;100986.22;15824292;28;20496;-52
2021/08/20 05:12:10;;;;;;;1999.90;999.90;;;;;;;20.23;78.64;100995.28;15840859;28;20051;-52
2021/08/20 05:19:47;;;;;;;1999.90;999.90;;;;;;;20.24;78.81;100996.09;15812512;28;20083;-55
2021/08/20 05:27:19;;;;;;;1999.90;999.90;;;;;;;20.58;77.30;100989.06;15831120;28;20114;-53
2021/08/20 05:34:52;;;;;;;1999.90;999.90;;;;;;;20.57;77.48;101001.63;15849235;28;20048;-55
2021/08/20 05:42:25;;;;;;;1999.90;999.90;;;;;;;20.78;76.53;100997.28;15798493;28;20109;-55
2021/08/20 05:49:59;;;;;;;1999.90;999.90;;;;;;;20.73;77.28;101007.78;15803072;28;20086;-54
2021/08/20 05:57:31;;;;;;;1999.90;999.90;;;;;;;20.72;76.16;101011.03;15802898;28;20040;-55
2021/08/20 06:05:06;;;;;;;1999.90;999.90;;;;;;;21.04;75.74;101017.69;15803013;28;20297;-54
2021/08/20 06:12:39;;;;;;;1999.90;999.90;;;;;;;20.83;75.12;101023.25;15784140;28;20535;-53
2021/08/20 06:20:14;;;;;;;1999.90;999.90;;;;;;;20.57;74.59;101020.66;15800100;28;20040;-53
2021/08/20 06:27:47;;;;;;;1999.90;999.90;;;;;;;20.50;74.47;101029.91;15799924;28;20131;-56
2021/08/20 06:35:20;;;;;;;1999.90;999.90;;;;;;;20.66;73.54;101021.94;15800907;28;20051;-54
2021/08/20 06:42:52;;;;;;;1999.90;999.90;;;;;;;20.81;72.73;101020.00;15782161;28;20075;-55
2021/08/20 06:50:26;;;;;;;1999.90;999.90;;;;;;;20.88;72.27;101028.56;15795583;28;20481;-56
2021/08/20 06:57:58;;;;;;;1999.90;999.90;;;;;;;20.69;71.81;101032.47;15797432;28;20080;-54
2021/08/20 07:05:33;;;;;;;1999.90;999.90;;;;;;;21.09;71.67;101039.22;15798835;28;20032;-54
2021/08/20 07:13:05;;;;;;;1999.90;999.90;;;;;;;20.53;71.76;101031.97;15799453;28;20472;-53
2021/08/20 07:20:39;;;;;;;1999.90;999.90;;;;;;;20.96;69.57;101043.59;15798601;28;20141;-53
2021/08/20 07:28:11;;;;;;;1999.90;999.90;;;;;;;21.00;70.15;101047.25;15781194;28;20093;-55
2021/08/20 07:35:45;;;;;;;1999.90;999.90;;;;;;;20.93;69.49;101050.03;15781464;28;20036;-54
2021/08/20 07:43:17;;;;;;;1999.90;999.90;;;;;;;20.59;68.92;101052.25;15792983;28;20059;-58
2021/08/20 07:50:50;;;;;;;1999.90;999.90;;;;;;;20.42;68.44;101060.22;15798688;28;20521;-58
2021/08/20 07:58:23;;;;;;;1999.90;999.90;;;;;;;20.44;68.10;101071.19;15793114;28;20074;-52
2021/08/20 08:05:58;;;;;;;1999.90;999.90;;;;;;;20.21;67.58;101070.50;15797923;28;20552;-51
2021/08/20 08:13:30;;;;;;;1999.90;999.90;;;;;;;20.39;67.23;101080.81;15765146;28;20044;-57
2021/08/20 08:21:04;;;;;;;1999.90;999.90;;;;;;;20.03;67.61;101082.50;15739814;28;20047;-54
2021/08/20 08:28:36;;;;;;;1999.90;999.90;;;;;;;20.16;67.36;101088.69;15766939;28;20048;-57
2021/08/20 08:36:10;;;;;;;1999.90;999.90;;;;;;;20.22;68.19;101115.47;15808572;28;20165;-54
2021/08/20 08:43:42;;;;;;;1999.90;999.90;;;;;;;20.05;70.50;101118.94;15789583;28;20119;-52
2021/08/20 08:51:19;;;;;;;1999.90;999.90;;;;;;;20.18;69.97;101134.44;15772316;28;20119;-53
2021/08/20 08:58:52;;;;;;;1999.90;999.90;;;;;;;20.49;69.74;101133.16;15789333;28;20128;-57
2021/08/20 09:06:36;;;;;;;1999.90;999.90;;;;;;;20.26;69.84;101135.34;15771592;28;20071;-54
2021/08/20 09:14:09;;;;;;;1999.90;999.90;;;;;;;20.01;69.52;101147.22;15806457;28;20063;-53
2021/08/20 09:21:48;;;;;;;1999.90;999.90;;;;;;;20.13;69.71;101148.97;15804762;28;20044;-54
2021/08/20 09:29:21;;;;;;;1999.90;999.90;;;;;;;20.24;69.45;101132.91;15770285;28;20084;-55
2021/08/20 09:36:57;;;;;;;1999.90;999.90;;;;;;;20.79;69.21;101126.53;15874162;22;20142;-58
2021/08/20 09:44:30;;;;;;;1999.90;999.90;;;;;;;21.55;66.88;101112.44;15867411;28;20105;-59
2021/08/20 09:52:04;;;;;;;1999.90;999.90;;;;;;;21.81;65.00;101145.44;15847544;28;20112;-57
2021/08/20 09:59:37;;;;;;;1999.90;999.90;;;;;;;22.91;60.69;101133.47;15865424;28;20123;-59
2021/08/20 10:07:11;;;;;;;1999.90;999.90;;;;;;;24.68;57.50;101131.91;15865470;28;20043;-58
2021/08/20 10:14:45;;;;;;;1999.90;999.90;;;;;;;24.28;55.37;101142.00;15865284;28;20208;-59
2021/08/20 10:22:19;;;;;;;1999.90;999.90;;;;;;;23.44;57.17;101143.94;15864210;28;20135;-58
2021/08/20 10:29:52;;;;;;;1999.90;999.90;;;;;;;23.98;56.06;101130.34;15864783;28;20134;-59
2021/08/20 10:37:28;;;;;;;1999.90;999.90;;;;;;;23.85;55.30;101133.66;15863445;28;20488;-58
2021/08/20 10:45:06;;;;;;;1999.90;999.90;;;;;;;23.32;54.97;101134.63;15845062;28;20048;-58
2021/08/20 10:52:41;;;;;;;1999.90;999.90;;;;;;;24.09;53.02;101125.41;15858584;28;20494;-59
2021/08/20 11:00:25;;;;;;;1999.90;999.90;;;;;;;25.68;51.01;101127.28;15858828;28;20078;-57
2021/08/20 11:07:58;;;;;;;1999.90;999.90;;;;;;;25.24;49.65;101135.53;15858788;28;20380;-55
2021/08/20 11:15:42;;;;;;;1999.90;999.90;;;;;;;26.30;46.39;101135.44;15813926;28;20508;-59
2021/08/20 11:23:17;;;;;;;1999.90;999.90;;;;;;;25.62;48.08;101132.63;15827308;28;20127;-58
2021/08/20 11:30:56;;;;;;;1999.90;999.90;;;;;;;25.92;47.96;101133.94;15852878;28;20063;-56
2021/08/20 11:38:33;;;;;;;1999.90;999.90;;;;;;;27.53;44.15;101122.28;15860516;28;20065;-57
2021/08/20 11:46:08;;;;;;;1999.90;999.90;;;;;;;24.99;49.55;101124.31;15861631;28;20050;-59
2021/08/20 11:53:48;;;;;;;1999.90;999.90;;;;;;;24.96;49.82;101125.16;15862615;28;20310;-59
2021/08/20 12:01:23;;;;;;;1999.90;999.90;;;;;;;25.62;48.20;101133.44;15870648;28;20058;-58
2021/08/20 12:09:08;;;;;;;1999.90;999.90;;;;;;;24.60;50.53;101132.44;15871215;28;20051;-58
2021/08/20 12:16:41;;;;;;;1999.90;999.90;;;;;;;23.64;51.06;101144.31;15871320;28;20063;-57
2021/08/20 12:24:17;;;;;;;1999.90;999.90;;;;;;;23.28;51.86;101141.56;15853037;28;20048;-58
2021/08/20 12:31:57;;;;;;;1999.90;999.90;;;;;;;23.42;55.67;101152.91;15803723;28;20043;-59
2021/08/20 12:39:35;;;;;;;1999.90;999.90;;;;;;;23.08;57.63;101158.25;15787338;28;20036;-58
2021/08/20 12:47:08;;;;;;;1999.90;999.90;;;;;;;23.41;57.67;101156.97;15805842;28;20074;-58
2021/08/20 12:54:42;;;;;;;1999.90;999.90;;;;;;;23.68;56.18;101157.34;15787983;28;20040;-58
2021/08/20 13:02:14;;;;;;;1999.90;999.90;;;;;;;24.61;55.05;101159.72;15855967;28;20130;-58
2021/08/20 13:09:48;;;;;;;1999.90;999.90;;;;;;;24.11;53.09;101160.00;15852425;28;20070;-57
2021/08/20 13:17:20;;;;;;;1999.90;999.90;;;;;;;28.68;43.44;101160.75;15862225;28;20400;-55
2021/08/20 13:24:54;;;;;;;1999.90;999.90;;;;;;;24.01;52.03;101155.97;15857999;28;20047;-57
2021/08/20 13:32:26;;;;;;;1999.90;999.90;;;;;;;27.48;44.47;101171.50;15856053;28;20127;-57
2021/08/20 13:40:00;;;;;;;1999.90;999.90;;;;;;;25.30;50.04;101165.22;15849026;28;20032;-57
2021/08/20 13:47:32;;;;;;;1999.90;999.90;;;;;;;24.76;50.07;101162.03;15847507;28;20100;-56
2021/08/20 13:55:07;;;;;;;1999.90;999.90;;;;;;;24.04;54.05;101160.03;15856117;28;20048;-56
2021/08/20 14:02:39;;;;;;;1999.90;999.90;;;;;;;24.64;52.16;101159.69;15843384;28;20112;-55
2021/08/20 14:10:14;;;;;;;1999.90;999.90;;;;;;;24.72;51.67;101166.97;15860546;28;20100;-56
2021/08/20 14:17:46;;;;;;;1999.90;999.90;;;;;;;24.02;55.15;101166.16;15840705;28;20484;-58
2021/08/20 14:25:20;;;;;;;1999.90;999.90;;;;;;;23.82;53.88;101170.72;15855966;28;20118;-57
2021/08/20 14:32:53;;;;;;;1999.90;999.90;;;;;;;23.23;55.80;101181.81;15862311;28;20048;-58
2021/08/20 14:40:26;;;;;;;1999.90;999.90;;;;;;;24.44;53.72;101184.28;15864418;28;20135;-57
2021/08/20 14:47:58;;;;;;;1999.90;999.90;;;;;;;23.81;54.50;101187.00;15862244;28;20119;-58
2021/08/20 14:55:32;;;;;;;1999.90;999.90;;;;;;;23.95;53.20;101191.81;15840815;28;20048;-59
2021/08/20 15:03:07;;;;;;;1999.90;999.90;;;;;;;23.45;53.58;101194.81;15862645;28;20663;-57
2021/08/20 15:10:44;;;;;;;1999.90;999.90;;;;;;;23.16;53.50;101193.22;15849217;28;20518;-52
2021/08/20 15:18:17;;;;;;;1999.90;999.90;;;;;;;23.25;53.84;101188.75;15859429;28;20476;-55
2021/08/20 15:25:50;;;;;;;1999.90;999.90;;;;;;;23.48;53.33;101191.16;15824977;28;20047;-57
2021/08/20 15:33:23;;;;;;;1999.90;999.90;;;;;;;23.74;53.91;101198.41;15729136;22;20304;-57
2021/08/20 15:40:57;;;;;;;1999.90;999.90;;;;;;;23.51;54.19;101204.56;15616867;28;20068;-62
2021/08/20 15:48:29;;;;;;;1999.90;999.90;;;;;;;23.63;55.13;101199.69;15616129;28;20529;-61
2021/08/20 15:56:03;;;;;;;1999.90;999.90;;;;;;;23.31;54.07;101201.34;15615855;28;20048;-59
2021/08/20 16:03:36;;;;;;;1999.90;999.90;;;;;;;23.17;54.64;101203.41;15615434;28;20522;-59
2021/08/20 16:11:09;;;;;;;1999.90;999.90;;;;;;;23.30;55.84;101201.75;15597373;28;20130;-59
2021/08/20 16:18:41;;;;;;;1999.90;999.90;;;;;;;23.12;55.97;101210.28;15614892;28;20044;-60
2021/08/20 16:26:15;;;;;;;1999.90;999.90;;;;;;;23.34;56.61;101216.78;15578374;28;20049;-61
2021/08/20 16:33:48;;;;;;;1999.90;999.90;;;;;;;23.38;55.82;101214.75;15609489;28;20378;-60
2021/08/20 16:41:22;;;;;;;1999.90;999.90;;;;;;;23.23;57.10;101208.25;15612349;28;20049;-60
2021/08/20 16:48:54;;;;;;;1999.90;999.90;;;;;;;23.48;56.54;101219.63;15624630;28;20410;-63
2021/08/20 16:56:28;;;;;;;1999.90;999.90;;;;;;;23.37;56.89;101210.28;15623832;28;20061;-62
2021/08/20 17:04:03;;;;;;;1999.90;999.90;;;;;;;23.27;57.16;101209.06;15620924;28;20708;-63
2021/08/20 17:11:36;;;;;;;1999.90;999.90;;;;;;;23.10;57.66;101212.75;15623662;28;20042;-62
2021/08/20 17:19:09;;;;;;;1999.90;999.90;;;;;;;22.79;58.90;101219.19;15623475;28;20049;-62
2021/08/20 17:26:42;;;;;;;1999.90;999.90;;;;;;;22.70;59.98;101209.03;15622022;28;20043;-61
2021/08/20 17:34:14;;;;;;;1999.90;999.90;;;;;;;22.48;60.75;101219.56;15605086;28;20045;-61
2021/08/20 17:41:48;;;;;;;1999.90;999.90;;;;;;;22.24;62.12;101228.03;15612232;28;20050;-62
2021/08/20 17:49:20;;;;;;;1999.90;999.90;;;;;;;22.02;62.74;101235.63;15621159;28;20042;-62
2021/08/20 17:56:54;;;;;;;1999.90;999.90;;;;;;;21.74;63.14;101239.13;15611737;28;20340;-61
2021/08/20 18:04:27;;;;;;;1999.90;999.90;;;;;;;21.51;63.76;101237.34;15614292;28;20044;-58
2021/08/20 18:12:03;;;;;;;1999.90;999.90;;;;;;;21.37;64.04;101244.97;15625242;28;20166;-60
2021/08/20 18:19:35;;;;;;;1999.90;999.90;;;;;;;21.13;64.67;101235.00;15584536;28;20494;-60
2021/08/20 18:27:09;;;;;;;1999.90;999.90;;;;;;;21.04;65.50;101249.50;15597506;28;20512;-60
2021/08/20 18:34:41;;;;;;;1999.90;999.90;;;;;;;20.94;65.75;101255.91;15600034;28;20112;-60
2021/08/20 18:42:14;;;;;;;1999.90;999.90;;;;;;;20.87;66.16;101261.53;15617711;28;20107;-60
2021/08/20 18:49:47;;;;;;;1999.90;999.90;;;;;;;20.91;66.05;101268.84;15599259;28;20355;-60
2021/08/20 18:57:20;;;;;;;1999.90;999.90;;;;;;;20.96;66.54;101273.38;15581096;28;20064;-60
2021/08/20 19:04:52;;;;;;;1999.90;999.90;;;;;;;21.03;66.41;101287.59;15615813;28;20045;-62
2021/08/20 19:12:31;;;;;;;1999.90;999.90;;;;;;;21.07;66.98;101304.69;15596809;28;20056;-61
2021/08/20 19:20:07;;;;;;;1999.90;999.90;;;;;;;21.10;65.73;101335.91;15596625;28;20497;-61
2021/08/20 19:27:41;;;;;;;1999.90;999.90;;;;;;;20.83;69.71;101337.25;15593483;28;20041;-60
2021/08/20 19:35:14;;;;;;;1999.90;999.90;;;;;;;20.43;72.66;101365.16;15579549;28;20483;-59
2021/08/20 19:42:49;;;;;;;1999.90;999.90;;;;;;;20.26;73.74;101340.19;15614514;28;20038;-56
2021/08/20 19:50:21;;;;;;;1999.90;999.90;;;;;;;20.08;73.98;101334.25;15611730;28;20445;-60
2021/08/20 19:57:55;;;;;;;1999.90;999.90;;;;;;;20.16;72.34;101336.00;15596613;28;20133;-62
2021/08/20 20:05:27;;;;;;;1999.90;999.90;;;;;;;20.23;72.67;101334.47;15612269;28;20045;-58
2021/08/20 20:13:04;;;;;;;1999.90;999.90;;;;;;;20.33;73.22;101342.28;15613321;28;20068;-60
2021/08/20 20:20:36;;;;;;;1999.90;999.90;;;;;;;20.34;73.13;101346.75;15603176;28;20068;-59
2021/08/20 20:28:09;;;;;;;1999.90;999.90;;;;;;;20.24;73.87;101353.09;15602538;28;20249;-61
2021/08/20 20:35:45;;;;;;;1999.90;999.90;;;;;;;19.62;75.55;101361.06;15610405;28;20132;-59
2021/08/20 20:43:18;;;;;;;1999.90;999.90;;;;;;;19.88;75.44;101355.41;15616036;28;20072;-61
2021/08/20 20:50:51;;;;;;;1999.90;999.90;;;;;;;19.55;75.16;101348.41;15620084;28;20403;-62
2021/08/20 20:58:24;;;;;;;1999.90;999.90;;;;;;;19.51;75.08;101349.53;15606982;28;20049;-62
2021/08/20 21:05:59;;;;;;;1999.90;999.90;;;;;;;19.72;74.34;101364.06;15591037;28;20045;-61
2021/08/20 21:13:34;;;;;;;1999.90;999.90;;;;;;;19.54;75.03;101362.91;15605826;28;20076;-59
2021/08/20 21:21:09;;;;;;;1999.90;999.90;;;;;;;19.48;74.26;101359.56;15604967;28;20053;-58
2021/08/20 21:28:48;;;;;;;1999.90;999.90;;;;;;;19.27;75.20;101362.84;15621862;28;20099;-60
2021/08/20 21:36:26;;;;;;;1999.90;999.90;;;;;;;19.02;75.56;101365.22;15609188;28;20117;-62
2021/08/20 21:43:59;;;;;;;1999.90;999.90;;;;;;;18.95;75.56;101367.91;15626168;28;20075;-61
2021/08/20 21:51:32;;;;;;;1999.90;999.90;;;;;;;18.83;76.11;101359.59;15610054;28;20055;-63
2021/08/20 21:59:20;;;;;;;1999.90;999.90;;;;;;;18.79;75.95;101363.56;15626107;28;20046;-62
2021/08/20 22:07:24;;;;;;;1999.90;999.90;;;;;;;18.64;75.95;101368.91;15629171;28;20033;-62
2021/08/20 22:15:29;;;;;;;1999.90;999.90;;;;;;;18.57;75.77;101388.53;15607671;28;20033;-62
2021/08/20 22:23:16;;;;;;;1999.90;999.90;;;;;;;18.42;76.07;101390.22;15601006;28;20502;-62
2021/08/20 22:31:22;;;;;;;1999.90;999.90;;;;;;;18.45;76.37;101389.50;15586359;28;20041;-62
2021/08/20 22:38:58;;;;;;;1999.90;999.90;;;;;;;18.31;76.52;101389.16;15619546;28;20048;-62
2021/08/20 22:46:59;;;;;;;1999.90;999.90;;;;;;;18.34;76.41;101396.91;15618147;28;20049;-62
2021/08/20 22:54:59;;;;;;;1999.90;999.90;;;;;;;18.30;76.42;101396.00;15601671;28;20411;-64
2021/08/20 23:02:38;;;;;;;1999.90;999.90;;;;;;;18.23;76.47;101403.50;15599797;28;20045;-63
2021/08/20 23:10:28;;;;;;;1999.90;999.90;;;;;;;18.04;77.49;101402.28;15612999;28;20079;-63
2021/08/20 23:18:02;;;;;;;1999.90;999.90;;;;;;;18.14;76.97;101400.91;15590762;28;20057;-63
2021/08/20 23:25:49;;;;;;;1999.90;999.90;;;;;;;18.27;77.42;101393.94;15586816;28;20042;-63
2021/08/20 23:34:12;;;;;;;1999.90;999.90;;;;;;;18.33;77.51;101405.75;15567273;28;20140;-62
2021/08/20 23:41:57;;;;;;;;;;;;;;;18.40;77.87;101405.91;15588912;28;20057;-63
2021/08/20 23:49:33;;;;;;;1999.90;999.90;;;;;;;18.48;77.83;101407.72;15611300;28;20092;-63
2021/08/20 23:57:14;;;;;;;1999.90;999.90;;;;;;;18.57;77.36;101415.97;15608439;28;20042;-63
